ADDS METAR Data INFO
IDs: Format: Raw Decoded Include TAF

Data at: 0448 UTC 22 Apr 2018

METAR for:KMIE (Muncie/Johnson Fld, IN, US)
Text:KMIE 220353Z AUTO 08008KT 10SM CLR 09/M02 A3035 RMK AO2 SLP274 T00941017
Temperature: 9.4°C ( 49°F)
Dewpoint: -1.7°C ( 29°F) [RH = 46%]
Pressure (altimeter):30.35 inches Hg (1027.9 mb) [Sea level pressure: 1027.4 mb]
Winds:from the E (80 degrees) at 9 MPH (8 knots; 4.1 m/s)
Visibility:10 or more sm (16+ km)
Ceiling:at least 12,000 feet AGL
Clouds:sky clear below 12,000 feet AGL
QC Flag:automated observation with no human augmentation